Aérodrome :
LOGIN :

S'inscrire | Disclaimer

   EN    FR    IT 

 










Légende :    VFR   VFR Marginal   IFR   IFR Intensif   IFR Très Intensif
Visi : 
Plafond : 
>= 8 km
>= 3000ft
5 à 8 km
1000 à 3000 ft
1500m à 5 km
500 à 1000 ft
800 à 1500m
200 à 500 ft
< 800m
< 200 ft
Symboles :   Orages  Brouillard  Fortes neiges  Fortes précipitations  Vent > 20 kt
SIGMETs :   Divers  Orages  Givrage  Turbulence  Onde Orograph.  Cendres Volcan.







- Altitude de l'aérodrome : 412 ft
- Code IATA : ORE
- Voir les cartes d'approche


LFOJ - Orleans

DERNIER METAR :
  • 252000Z AUTO 01003KT CAVOK 05/01 Q1010 NOSIG

METARs EXPIRÉS :
  • 251930Z AUTO 36002KT CAVOK 07/00 Q1010 NOSIG
  • 251900Z AUTO 06003KT CAVOK 07/02 Q1010 NOSIG
  • 251830Z AUTO 05003KT CAVOK 07/01 Q1010 NOSIG
  • 251800Z AUTO 05005KT CAVOK 08/01 Q1010 NOSIG
  • 251730Z AUTO 03006KT CAVOK 08/M00 Q1010 NOSIG

TAF TAF LFOJ
Valide du 25 à 15h jusqu'au 26 à 15h UTC


251400Z 2515/2615 07006KT 9999 BKN020 BKN025 BKN031
BECMG 2517/2518 CAVOK
TEMPO 2610/2615 -SHRA SCT030TCU
Pas de NOTAMs connus pour ce terrain.



MET'MAP, la Météo Aéronautique d'un coup d'oeil ! - Copyright ORBIFLY Décembre 2007 - Disclaimer

ORBIFLY MET'MAP TEAM :

Programmation & Développement : Alexandra Zaïnal
Conception & Développement : Baudouin d'Aumeries
Co-Programmation & Développement : Marc-Olivier Méhu
Soutien technique & logistique : Manuel Goepfert

Contact : metmap@orbifly.com




SOURCES & CREDITS :

   NOAA